Aviation Digital Data Service (ADDS)

Output produced by METARs form (1344 UTC 24 August 2019)
found at http://www.aviationweather.gov/metar/data/
 
METAR text: TNCE 241255Z AUTO 08010KT 050V120 //// // ///////// 31/24 Q1018 RE//
Conditions at: TNCE (FDR ARPT/ORANJES, AN) observed 1255 UTC 24 August 2019
Temperature: 31.0°C (88°F)
Dewpoint: 24.0°C (75°F) [RH = 66%]
Pressure (altimeter): 30.06 inches Hg (1018.0 mb)
Winds: from the E (80 degrees) at 12 MPH (10 knots; 5.1 m/s)
Visibility: missing
Ceiling: unknown
Clouds: missing
Weather: no significant weather observed at this time

METAR text: TNCE 241155Z AUTO 08011KT 050V110 //// // ///////// 30/25 Q1017 RE//
Conditions at: TNCE (FDR ARPT/ORANJES, AN) observed 1155 UTC 24 August 2019
Temperature: 30.0°C (86°F)
Dewpoint: 25.0°C (77°F) [RH = 75%]
Pressure (altimeter): 30.03 inches Hg (1017.0 mb)
Winds: from the E (80 degrees) at 13 MPH (11 knots; 5.7 m/s)
Visibility: missing
Ceiling: unknown
Clouds: missing
Weather: no significant weather observed at this time

METAR text: TNCE 241055Z AUTO 09009KT 050V120 //// // ///////// 28/24 Q1017 RE//
Conditions at: TNCE (FDR ARPT/ORANJES, AN) observed 1055 UTC 24 August 2019
Temperature: 28.0°C (82°F)
Dewpoint: 24.0°C (75°F) [RH = 79%]
Pressure (altimeter): 30.03 inches Hg (1017.0 mb)
Winds: from the E (90 degrees) at 10 MPH (9 knots; 4.6 m/s)
Visibility: missing
Ceiling: unknown
Clouds: missing
Weather: no significant weather observed at this time

METAR text: TNCE 240955Z AUTO 08007KT 050V110 //// // ///////// 27/24 Q1016 RE//
Conditions at: TNCE (FDR ARPT/ORANJES, AN) observed 0955 UTC 24 August 2019
Temperature: 27.0°C (81°F)
Dewpoint: 24.0°C (75°F) [RH = 84%]
Pressure (altimeter): 30.00 inches Hg (1016.0 mb)
Winds: from the E (80 degrees) at 8 MPH (7 knots; 3.6 m/s)
Visibility: missing
Ceiling: unknown
Clouds: missing
Weather: no significant weather observed at this time

METAR text: TNCE 240855Z AUTO 09007KT 050V120 //// // ///////// 27/24 Q1016 RE//
Conditions at: TNCE (FDR ARPT/ORANJES, AN) observed 0855 UTC 24 August 2019
Temperature: 27.0°C (81°F)
Dewpoint: 24.0°C (75°F) [RH = 84%]
Pressure (altimeter): 30.00 inches Hg (1016.0 mb)
Winds: from the E (90 degrees) at 8 MPH (7 knots; 3.6 m/s)
Visibility: missing
Ceiling: unknown
Clouds: missing
Weather: no significant weather observed at this time

METAR text: TNCE 240755Z AUTO 08010KT 050V110 //// // ///////// 28/24 Q1016 RE//
Conditions at: TNCE (FDR ARPT/ORANJES, AN) observed 0755 UTC 24 August 2019
Temperature: 28.0°C (82°F)
Dewpoint: 24.0°C (75°F) [RH = 79%]
Pressure (altimeter): 30.00 inches Hg (1016.0 mb)
Winds: from the E (80 degrees) at 12 MPH (10 knots; 5.1 m/s)
Visibility: missing
Ceiling: unknown
Clouds: missing
Weather: no significant weather observed at this time

METAR text: TNCE 240655Z AUTO 09008KT 060V120 //// // ///////// 28/24 Q1016 RE//
Conditions at: TNCE (FDR ARPT/ORANJES, AN) observed 0655 UTC 24 August 2019
Temperature: 28.0°C (82°F)
Dewpoint: 24.0°C (75°F) [RH = 79%]
Pressure (altimeter): 30.00 inches Hg (1016.0 mb)
Winds: from the E (90 degrees) at 9 MPH (8 knots; 4.1 m/s)
Visibility: missing
Ceiling: unknown
Clouds: missing
Weather: no significant weather observed at this time

METAR text: TNCE 240555Z AUTO 08011KT 050V110 //// // ///////// 28/24 Q1016 RE//
Conditions at: TNCE (FDR ARPT/ORANJES, AN) observed 0555 UTC 24 August 2019
Temperature: 28.0°C (82°F)
Dewpoint: 24.0°C (75°F) [RH = 79%]
Pressure (altimeter): 30.00 inches Hg (1016.0 mb)
Winds: from the E (80 degrees) at 13 MPH (11 knots; 5.7 m/s)
Visibility: missing
Ceiling: unknown
Clouds: missing
Weather: no significant weather observed at this time

METAR text: TNCE 240455Z AUTO 08009KT 050V120 //// // ///////// 28/25 Q1017 RE//
Conditions at: TNCE (FDR ARPT/ORANJES, AN) observed 0455 UTC 24 August 2019
Temperature: 28.0°C (82°F)
Dewpoint: 25.0°C (77°F) [RH = 84%]
Pressure (altimeter): 30.03 inches Hg (1017.0 mb)
Winds: from the E (80 degrees) at 10 MPH (9 knots; 4.6 m/s)
Visibility: missing
Ceiling: unknown
Clouds: missing
Weather: no significant weather observed at this time

METAR text: TNCE 240355Z AUTO 08009KT //// // ///////// 28/25 Q1017 RE//
Conditions at: TNCE (FDR ARPT/ORANJES, AN) observed 0355 UTC 24 August 2019
Temperature: 28.0°C (82°F)
Dewpoint: 25.0°C (77°F) [RH = 84%]
Pressure (altimeter): 30.03 inches Hg (1017.0 mb)
Winds: from the E (80 degrees) at 10 MPH (9 knots; 4.6 m/s)
Visibility: missing
Ceiling: unknown
Clouds: missing
Weather: no significant weather observed at this time

METAR text: TNCE 240255Z AUTO 08011KT //// // ///////// 28/24 Q1018 RE//
Conditions at: TNCE (FDR ARPT/ORANJES, AN) observed 0255 UTC 24 August 2019
Temperature: 28.0°C (82°F)
Dewpoint: 24.0°C (75°F) [RH = 79%]
Pressure (altimeter): 30.06 inches Hg (1018.0 mb)
Winds: from the E (80 degrees) at 13 MPH (11 knots; 5.7 m/s)
Visibility: missing
Ceiling: unknown
Clouds: missing
Weather: no significant weather observed at this time

METAR text: TNCE 240155Z AUTO 08010KT 050V110 //// // ///////// 28/25 Q1018 RE//
Conditions at: TNCE (FDR ARPT/ORANJES, AN) observed 0155 UTC 24 August 2019
Temperature: 28.0°C (82°F)
Dewpoint: 25.0°C (77°F) [RH = 84%]
Pressure (altimeter): 30.06 inches Hg (1018.0 mb)
Winds: from the E (80 degrees) at 12 MPH (10 knots; 5.1 m/s)
Visibility: missing
Ceiling: unknown
Clouds: missing
Weather: no significant weather observed at this time

METAR text: TNCE 240055Z AUTO 08009KT 050V110 //// // ///////// 28/25 Q1017 RE//
Conditions at: TNCE (FDR ARPT/ORANJES, AN) observed 0055 UTC 24 August 2019
Temperature: 28.0°C (82°F)
Dewpoint: 25.0°C (77°F) [RH = 84%]
Pressure (altimeter): 30.03 inches Hg (1017.0 mb)
Winds: from the E (80 degrees) at 10 MPH (9 knots; 4.6 m/s)
Visibility: missing
Ceiling: unknown
Clouds: missing
Weather: no significant weather observed at this time

METAR text: TNCE 232355Z AUTO 09009KT 050V120 //// // ///////// 28/24 Q1016 RE//
Conditions at: TNCE (FDR ARPT/ORANJES, AN) observed 2355 UTC 23 August 2019
Temperature: 28.0°C (82°F)
Dewpoint: 24.0°C (75°F) [RH = 79%]
Pressure (altimeter): 30.00 inches Hg (1016.0 mb)
Winds: from the E (90 degrees) at 10 MPH (9 knots; 4.6 m/s)
Visibility: missing
Ceiling: unknown
Clouds: missing
Weather: no significant weather observed at this time

METAR text: TNCE 232255Z AUTO 09009KT 050V120 //// // ///////// 28/24 Q1016 RE//
Conditions at: TNCE (FDR ARPT/ORANJES, AN) observed 2255 UTC 23 August 2019
Temperature: 28.0°C (82°F)
Dewpoint: 24.0°C (75°F) [RH = 79%]
Pressure (altimeter): 30.00 inches Hg (1016.0 mb)
Winds: from the E (90 degrees) at 10 MPH (9 knots; 4.6 m/s)
Visibility: missing
Ceiling: unknown
Clouds: missing
Weather: no significant weather observed at this time

METAR text: TNCE 232155Z AUTO 09010KT 060V130 //// // ///////// 29/24 Q1016 RE//
Conditions at: TNCE (FDR ARPT/ORANJES, AN) observed 2155 UTC 23 August 2019
Temperature: 29.0°C (84°F)
Dewpoint: 24.0°C (75°F) [RH = 74%]
Pressure (altimeter): 30.00 inches Hg (1016.0 mb)
Winds: from the E (90 degrees) at 12 MPH (10 knots; 5.1 m/s)
Visibility: missing
Ceiling: unknown
Clouds: missing
Weather: no significant weather observed at this time

METAR text: TNCE 232055Z AUTO 09013KT 050V120 //// // ///////// 30/25 Q1015 RE//
Conditions at: TNCE (FDR ARPT/ORANJES, AN) observed 2055 UTC 23 August 2019
Temperature: 30.0°C (86°F)
Dewpoint: 25.0°C (77°F) [RH = 75%]
Pressure (altimeter): 29.97 inches Hg (1015.0 mb)
Winds: from the E (90 degrees) at 15 MPH (13 knots; 6.7 m/s)
Visibility: missing
Ceiling: unknown
Clouds: missing
Weather: no significant weather observed at this time

METAR text: TNCE 231955Z AUTO 09013KT 050V120 //// // ///////// 31/25 Q1015 RE//
Conditions at: TNCE (FDR ARPT/ORANJES, AN) observed 1955 UTC 23 August 2019
Temperature: 31.0°C (88°F)
Dewpoint: 25.0°C (77°F) [RH = 71%]
Pressure (altimeter): 29.97 inches Hg (1015.0 mb)
Winds: from the E (90 degrees) at 15 MPH (13 knots; 6.7 m/s)
Visibility: missing
Ceiling: unknown
Clouds: missing
Weather: no significant weather observed at this time

METAR text: TNCE 231855Z AUTO 08014KT 050V120 //// // ///////// 31/25 Q1016 RE//
Conditions at: TNCE (FDR ARPT/ORANJES, AN) observed 1855 UTC 23 August 2019
Temperature: 31.0°C (88°F)
Dewpoint: 25.0°C (77°F) [RH = 71%]
Pressure (altimeter): 30.00 inches Hg (1016.0 mb)
Winds: from the E (80 degrees) at 16 MPH (14 knots; 7.2 m/s)
Visibility: missing
Ceiling: unknown
Clouds: missing
Weather: no significant weather observed at this time

METAR text: TNCE 231755Z AUTO 08013KT 050V110 //// // ///////// 31/25 Q1016 RE//
Conditions at: TNCE (FDR ARPT/ORANJES, AN) observed 1755 UTC 23 August 2019
Temperature: 31.0°C (88°F)
Dewpoint: 25.0°C (77°F) [RH = 71%]
Pressure (altimeter): 30.00 inches Hg (1016.0 mb)
Winds: from the E (80 degrees) at 15 MPH (13 knots; 6.7 m/s)
Visibility: missing
Ceiling: unknown
Clouds: missing
Weather: no significant weather observed at this time

METAR text: TNCE 231655Z AUTO 08013KT 040V120 //// // ///////// 32/25 Q1017 RE//
Conditions at: TNCE (FDR ARPT/ORANJES, AN) observed 1655 UTC 23 August 2019
Temperature: 32.0°C (90°F)
Dewpoint: 25.0°C (77°F) [RH = 67%]
Pressure (altimeter): 30.03 inches Hg (1017.0 mb)
Winds: from the E (80 degrees) at 15 MPH (13 knots; 6.7 m/s)
Visibility: missing
Ceiling: unknown
Clouds: missing
Weather: no significant weather observed at this time

METAR text: TNCE 231555Z AUTO 09013KT 050V120 //// // ///////// 31/25 Q1017 RE//
Conditions at: TNCE (FDR ARPT/ORANJES, AN) observed 1555 UTC 23 August 2019
Temperature: 31.0°C (88°F)
Dewpoint: 25.0°C (77°F) [RH = 71%]
Pressure (altimeter): 30.03 inches Hg (1017.0 mb)
Winds: from the E (90 degrees) at 15 MPH (13 knots; 6.7 m/s)
Visibility: missing
Ceiling: unknown
Clouds: missing
Weather: no significant weather observed at this time

METAR text: TNCE 231455Z AUTO 08013KT 040V110 //// // ///////// 30/25 Q1018 RE//
Conditions at: TNCE (FDR ARPT/ORANJES, AN) observed 1455 UTC 23 August 2019
Temperature: 30.0°C (86°F)
Dewpoint: 25.0°C (77°F) [RH = 75%]
Pressure (altimeter): 30.06 inches Hg (1018.0 mb)
Winds: from the E (80 degrees) at 15 MPH (13 knots; 6.7 m/s)
Visibility: missing
Ceiling: unknown
Clouds: missing
Weather: no significant weather observed at this time

METAR text: TNCE 231355Z AUTO 08013KT 050V120 //// // ///////// 30/25 Q1018 RE//
Conditions at: TNCE (FDR ARPT/ORANJES, AN) observed 1355 UTC 23 August 2019
Temperature: 30.0°C (86°F)
Dewpoint: 25.0°C (77°F) [RH = 75%]
Pressure (altimeter): 30.06 inches Hg (1018.0 mb)
Winds: from the E (80 degrees) at 15 MPH (13 knots; 6.7 m/s)
Visibility: missing
Ceiling: unknown
Clouds: missing
Weather: no significant weather observed at this time

METAR text: TNCE 231255Z AUTO 07012KT 030V100 //// // ///////// 29/25 Q1018 RE//
Conditions at: TNCE (FDR ARPT/ORANJES, AN) observed 1255 UTC 23 August 2019
Temperature: 29.0°C (84°F)
Dewpoint: 25.0°C (77°F) [RH = 79%]
Pressure (altimeter): 30.06 inches Hg (1018.0 mb)
Winds: from the ENE (70 degrees) at 14 MPH (12 knots; 6.2 m/s)
Visibility: missing
Ceiling: unknown
Clouds: missing
Weather: no significant weather observed at this time

METAR text: TNCE 231155Z AUTO 08009KT 060V120 //// // ///////// 28/25 Q1018 RE//
Conditions at: TNCE (FDR ARPT/ORANJES, AN) observed 1155 UTC 23 August 2019
Temperature: 28.0°C (82°F)
Dewpoint: 25.0°C (77°F) [RH = 84%]
Pressure (altimeter): 30.06 inches Hg (1018.0 mb)
Winds: from the E (80 degrees) at 10 MPH (9 knots; 4.6 m/s)
Visibility: missing
Ceiling: unknown
Clouds: missing
Weather: no significant weather observed at this time

METAR text: TNCE 231055Z AUTO 08011KT //// // ///////// 28/24 Q1017 RE//
Conditions at: TNCE (FDR ARPT/ORANJES, AN) observed 1055 UTC 23 August 2019
Temperature: 28.0°C (82°F)
Dewpoint: 24.0°C (75°F) [RH = 79%]
Pressure (altimeter): 30.03 inches Hg (1017.0 mb)
Winds: from the E (80 degrees) at 13 MPH (11 knots; 5.7 m/s)
Visibility: missing
Ceiling: unknown
Clouds: missing
Weather: no significant weather observed at this time

METAR text: TNCE 230955Z AUTO 07007KT //// // ///////// 27/24 Q1017 RE//
Conditions at: TNCE (FDR ARPT/ORANJES, AN) observed 0955 UTC 23 August 2019
Temperature: 27.0°C (81°F)
Dewpoint: 24.0°C (75°F) [RH = 84%]
Pressure (altimeter): 30.03 inches Hg (1017.0 mb)
Winds: from the ENE (70 degrees) at 8 MPH (7 knots; 3.6 m/s)
Visibility: missing
Ceiling: unknown
Clouds: missing
Weather: no significant weather observed at this time

METAR text: TNCE 230855Z AUTO 07010KT //// // ///////// 27/24 Q1016 RE//
Conditions at: TNCE (FDR ARPT/ORANJES, AN) observed 0855 UTC 23 August 2019
Temperature: 27.0°C (81°F)
Dewpoint: 24.0°C (75°F) [RH = 84%]
Pressure (altimeter): 30.00 inches Hg (1016.0 mb)
Winds: from the ENE (70 degrees) at 12 MPH (10 knots; 5.1 m/s)
Visibility: missing
Ceiling: unknown
Clouds: missing
Weather: no significant weather observed at this time

METAR text: TNCE 230755Z AUTO 08008KT 050V110 //// // ///////// 27/24 Q1016 RE//
Conditions at: TNCE (FDR ARPT/ORANJES, AN) observed 0755 UTC 23 August 2019
Temperature: 27.0°C (81°F)
Dewpoint: 24.0°C (75°F) [RH = 84%]
Pressure (altimeter): 30.00 inches Hg (1016.0 mb)
Winds: from the E (80 degrees) at 9 MPH (8 knots; 4.1 m/s)
Visibility: missing
Ceiling: unknown
Clouds: missing
Weather: no significant weather observed at this time

METAR text: TNCE 230655Z AUTO 08008KT 040V120 //// // ///////// 27/24 Q1016 RE//
Conditions at: TNCE (FDR ARPT/ORANJES, AN) observed 0655 UTC 23 August 2019
Temperature: 27.0°C (81°F)
Dewpoint: 24.0°C (75°F) [RH = 84%]
Pressure (altimeter): 30.00 inches Hg (1016.0 mb)
Winds: from the E (80 degrees) at 9 MPH (8 knots; 4.1 m/s)
Visibility: missing
Ceiling: unknown
Clouds: missing
Weather: no significant weather observed at this time

METAR text: TNCE 230555Z AUTO 08009KT 060V120 //// // ///////// 27/23 Q1016 RE//
Conditions at: TNCE (FDR ARPT/ORANJES, AN) observed 0555 UTC 23 August 2019
Temperature: 27.0°C (81°F)
Dewpoint: 23.0°C (73°F) [RH = 79%]
Pressure (altimeter): 30.00 inches Hg (1016.0 mb)
Winds: from the E (80 degrees) at 10 MPH (9 knots; 4.6 m/s)
Visibility: missing
Ceiling: unknown
Clouds: missing
Weather: no significant weather observed at this time

METAR text: TNCE 230455Z AUTO 07011KT 040V100 //// // ///////// 28/23 Q1017 RE//
Conditions at: TNCE (FDR ARPT/ORANJES, AN) observed 0455 UTC 23 August 2019
Temperature: 28.0°C (82°F)
Dewpoint: 23.0°C (73°F) [RH = 74%]
Pressure (altimeter): 30.03 inches Hg (1017.0 mb)
Winds: from the ENE (70 degrees) at 13 MPH (11 knots; 5.7 m/s)
Visibility: missing
Ceiling: unknown
Clouds: missing
Weather: no significant weather observed at this time

METAR text: TNCE 230355Z AUTO 08009KT 040V160 //// // ///////// 27/24 Q1017 RE//
Conditions at: TNCE (FDR ARPT/ORANJES, AN) observed 0355 UTC 23 August 2019
Temperature: 27.0°C (81°F)
Dewpoint: 24.0°C (75°F) [RH = 84%]
Pressure (altimeter): 30.03 inches Hg (1017.0 mb)
Winds: from the E (80 degrees) at 10 MPH (9 knots; 4.6 m/s)
Visibility: missing
Ceiling: unknown
Clouds: missing
Weather: no significant weather observed at this time

METAR text: TNCE 230255Z AUTO 08009KT 050V110 //// // ///////// 28/23 Q1017 RE//
Conditions at: TNCE (FDR ARPT/ORANJES, AN) observed 0255 UTC 23 August 2019
Temperature: 28.0°C (82°F)
Dewpoint: 23.0°C (73°F) [RH = 74%]
Pressure (altimeter): 30.03 inches Hg (1017.0 mb)
Winds: from the E (80 degrees) at 10 MPH (9 knots; 4.6 m/s)
Visibility: missing
Ceiling: unknown
Clouds: missing
Weather: no significant weather observed at this time

METAR text: TNCE 230155Z AUTO 08011KT //// // ///////// 28/24 Q1017 RE//
Conditions at: TNCE (FDR ARPT/ORANJES, AN) observed 0155 UTC 23 August 2019
Temperature: 28.0°C (82°F)
Dewpoint: 24.0°C (75°F) [RH = 79%]
Pressure (altimeter): 30.03 inches Hg (1017.0 mb)
Winds: from the E (80 degrees) at 13 MPH (11 knots; 5.7 m/s)
Visibility: missing
Ceiling: unknown
Clouds: missing
Weather: no significant weather observed at this time